Buffalo Creek, Colorado
Current Conditions -  °F | °C
As of 11:53 PM on Thursday 30 Oct 2014 (Local Time) from KAPA Reporting Station
Clear Clear  
Wind Chill: 36°   Ceiling: Unl
Heat Index: 41°   Visibility: 10mi
Dew Point: 26°   Wind: 8mph
Humidity: 55%   Direction: 180°S
Pressure: 30.4"   Gusts: NA
Location:  39.39°N, 105.27°W
Report Text: KAPA 310553Z 18007KT 10SM CLR 05/M03 A3040 RMK AO2 SLP282 T00501033 10122 20050 50001
Loading
Personal Weather Stations






























Interactive Weather Map
Tropical Storm Tracking
New forecast layout! Learn more

10-Day Weather Forecast

Advertisements
Track Severe Weather on mobile